NO-0032 weather

Bøverbru Airfield
Oppland, Norway

Public forecast

Using degrees Celsius for public forecast. Weather courtesy of forecast.io.

Closest aviation weather report (METAR) to Bøverbru Airfield

Closest report is Oslo Gardermoen Airport, 29.4 nm (54.5 km) SSE. Retrieved 2020/06/04 14:20 UTC (2 minutes ago):

ENGM 041420Z 13012KT 100V160 CAVOK 19/02 Q0999 NOSIG

Closest aviation forecast (TAF) to Bøverbru Airfield

Closest forecast is Oslo Gardermoen Airport, 29.4 nm (54.5 km) SSE. Retrieved 2020/06/04 12:57 UTC (1 hour ago):

TAF ENGM 041100Z 0412/0512 12008KT 9999 FEW040 BKN070